Time;durP1;ratioP1;P1;durP2;ratioP2;P2;SDS_P1;SDS_P2;PMS_P1;PMS_P2;Temp;Humidity;BMP_temperature;BMP_pressure;BME280_temperature;BME280_humidity;BME280_pressure;Samples;Min_cycle;Max_cycle;Signal;HPM_P1;HPM_P2
2022/01/16 00:01:57;;;;;;;18.42;10.48;;;-3.70;99.90;;;;;;5043729;28;20046;-85
2022/01/16 00:04:24;;;;;;;17.02;9.80;;;-3.80;99.90;;;;;;5045012;28;20487;-85
2022/01/16 00:06:51;;;;;;;17.60;10.68;;;-3.80;99.90;;;;;;5060499;28;20087;-85
2022/01/16 00:09:18;;;;;;;18.42;11.40;;;-3.80;99.90;;;;;;5044061;28;20080;-85
2022/01/16 00:11:45;;;;;;;20.25;11.50;;;-3.80;99.90;;;;;;5045014;28;20109;-85
2022/01/16 00:14:11;;;;;;;16.77;10.88;;;-3.80;99.90;;;;;;5045851;28;20050;-85
2022/01/16 00:16:41;;;;;;;19.42;10.38;;;-3.80;99.90;;;;;;5046167;28;20418;-86
2022/01/16 00:19:08;;;;;;;20.70;11.93;;;-3.80;99.90;;;;;;5047944;28;20109;-85
2022/01/16 00:21:39;;;;;;;20.85;11.55;;;-3.80;99.90;;;;;;5047118;28;20050;-85
2022/01/16 00:24:07;;;;;;;18.23;10.90;;;-3.90;99.90;;;;;;5047351;28;20102;-86
2022/01/16 00:26:35;;;;;;;27.35;14.80;;;-3.90;99.90;;;;;;5048982;28;20084;-86
2022/01/16 00:29:04;;;;;;;48.70;20.77;;;-3.90;99.90;;;;;;5051039;28;20053;-86
2022/01/16 00:31:31;;;;;;;34.75;17.73;;;-3.90;99.90;;;;;;5055568;28;20056;-84
2022/01/16 00:33:58;;;;;;;40.38;18.52;;;-3.90;99.90;;;;;;5045725;28;20061;-85
2022/01/16 00:36:25;;;;;;;45.08;19.70;;;-3.90;99.90;;;;;;5034856;28;20057;-84
2022/01/16 00:38:53;;;;;;;30.65;15.88;;;-3.90;99.90;;;;;;5035808;28;20479;-84
2022/01/16 00:41:21;;;;;;;33.25;16.58;;;-4.00;99.90;;;;;;5034584;28;20053;-85
2022/01/16 00:43:49;;;;;;;28.02;12.45;;;-4.00;99.90;;;;;;5036196;28;20132;-85
2022/01/16 00:46:17;;;;;;;24.25;13.60;;;-4.10;99.90;;;;;;5033607;28;20077;-84
2022/01/16 00:48:44;;;;;;;33.45;14.48;;;-4.10;99.90;;;;;;5033877;28;20501;-84
2022/01/16 00:51:12;;;;;;;24.80;12.88;;;-4.10;99.90;;;;;;5033927;28;20049;-82
2022/01/16 00:53:39;;;;;;;31.15;15.68;;;-4.10;99.90;;;;;;5034203;28;20053;-84
2022/01/16 00:56:06;;;;;;;26.95;14.02;;;-4.20;99.90;;;;;;5034407;28;20083;-85
2022/01/16 00:58:33;;;;;;;35.33;14.93;;;-4.10;99.90;;;;;;5033704;28;20054;-84
2022/01/16 01:01:00;;;;;;;34.20;15.18;;;-4.10;99.90;;;;;;5034406;28;20132;-84
2022/01/16 01:03:28;;;;;;;30.70;14.70;;;-4.10;99.90;;;;;;5033537;28;20052;-84
2022/01/16 01:05:56;;;;;;;33.72;15.77;;;-4.10;99.90;;;;;;5034315;28;20049;-84
2022/01/16 01:08:23;;;;;;;31.45;14.40;;;-4.20;99.90;;;;;;5036159;28;20116;-85
2022/01/16 01:10:53;;;;;;;32.40;15.57;;;-4.20;99.90;;;;;;5036460;28;20072;-84
2022/01/16 01:13:30;;;;;;;30.92;16.02;;;-4.20;99.90;;;;;;5034532;28;20657;-84
2022/01/16 01:16:03;;;;;;;31.83;15.52;;;-4.20;99.90;;;;;;5036941;28;20063;-85
2022/01/16 01:18:32;;;;;;;32.88;16.75;;;-4.20;99.90;;;;;;5036292;28;20056;-84
2022/01/16 01:21:02;;;;;;;35.45;16.00;;;-4.10;99.90;;;;;;5034643;28;20137;-84
2022/01/16 01:23:30;;;;;;;31.25;15.50;;;-4.10;99.90;;;;;;5034642;28;20060;-84
2022/01/16 01:25:57;;;;;;;34.40;16.60;;;-4.00;99.90;;;;;;5036876;28;20054;-85
2022/01/16 01:28:24;;;;;;;30.52;15.40;;;-4.00;99.90;;;;;;5036809;28;20096;-84
2022/01/16 01:30:51;;;;;;;33.33;14.65;;;-4.00;99.90;;;;;;5034948;28;20145;-84
2022/01/16 01:33:21;;;;;;;26.63;13.77;;;-4.00;99.90;;;;;;5034940;28;20046;-85
2022/01/16 01:35:48;;;;;;;30.48;14.63;;;-4.00;99.90;;;;;;5035420;28;20491;-84
2022/01/16 01:38:20;;;;;;;28.92;14.68;;;-4.00;99.90;;;;;;5035194;28;20053;-85
2022/01/16 01:40:48;;;;;;;26.03;13.87;;;-4.00;99.90;;;;;;5036004;28;20049;-84
2022/01/16 01:51:42;;;;;;;21.45;12.38;;;-4.10;99.90;;;;;;5038388;28;20057;-85
2022/01/16 01:54:10;;;;;;;26.75;13.68;;;-4.10;99.90;;;;;;5039395;28;20052;-84
2022/01/16 01:56:39;;;;;;;27.73;13.20;;;-4.10;99.90;;;;;;5040752;28;20064;-84
2022/01/16 01:59:07;;;;;;;25.67;12.85;;;-4.00;99.90;;;;;;5041396;28;20559;-85
2022/01/16 02:01:34;;;;;;;21.02;12.65;;;-4.00;99.90;;;;;;5047325;28;20073;-84
2022/01/16 02:04:02;;;;;;;26.55;12.57;;;-4.00;99.90;;;;;;5048941;28;20049;-85
2022/01/16 02:06:30;;;;;;;27.35;13.70;;;-4.00;99.90;;;;;;5048498;28;20069;-86
2022/01/16 02:09:00;;;;;;;23.23;11.82;;;-4.00;99.90;;;;;;5049433;28;20129;-85
2022/01/16 02:11:29;;;;;;;22.05;11.75;;;-4.00;99.90;;;;;;5049578;28;20068;-84
2022/01/16 02:36:33;;;;;;;25.42;13.38;;;-3.70;99.90;;;;;;5052889;28;20046;-84
2022/01/16 02:39:09;;;;;;;31.42;14.20;;;-3.50;99.90;;;;;;5053469;28;20080;-85
2022/01/16 02:41:36;;;;;;;28.55;13.60;;;-3.50;99.90;;;;;;5053486;28;20069;-85
2022/01/16 02:44:12;;;;;;;29.23;14.55;;;-3.40;99.90;;;;;;5051832;28;20082;-85
2022/01/16 02:46:39;;;;;;;27.33;13.68;;;-3.40;99.90;;;;;;5052509;28;20069;-85
2022/01/16 02:49:22;;;;;;;23.33;12.20;;;-3.40;99.90;;;;;;5052304;28;20046;-85
2022/01/16 02:52:11;;;;;;;26.15;13.85;;;-3.40;99.90;;;;;;5052905;28;20045;-86
2022/01/16 02:54:40;;;;;;;28.17;14.35;;;-3.40;99.90;;;;;;5054176;28;20080;-86
2022/01/16 02:57:09;;;;;;;27.70;14.48;;;-3.20;99.90;;;;;;5053907;28;20037;-86
2022/01/16 02:59:37;;;;;;;32.13;14.77;;;-3.20;99.90;;;;;;5055018;28;20041;-86
2022/01/16 03:02:08;;;;;;;27.92;15.32;;;-3.20;99.90;;;;;;5050121;28;20076;-83
2022/01/16 03:04:35;;;;;;;38.63;18.02;;;-3.10;99.90;;;;;;5050920;28;20050;-84
2022/01/16 03:07:04;;;;;;;45.83;20.27;;;-2.80;99.90;;;;;;5048837;28;20084;-83
2022/01/16 03:09:52;;;;;;;42.97;20.35;;;-2.50;99.90;;;;;;5050496;28;20570;-84
2022/01/16 03:12:18;;;;;;;41.90;19.45;;;-2.30;99.90;;;;;;5049347;28;20077;-84
2022/01/16 03:14:45;;;;;;;38.25;18.80;;;-2.10;99.90;;;;;;5043512;28;20482;-84
2022/01/16 03:17:23;;;;;;;39.97;20.23;;;-1.90;99.90;;;;;;5047456;28;20088;-82
2022/01/16 03:22:36;;;;;;;36.65;18.80;;;-1.50;99.90;;;;;;5048896;28;20060;-85
2022/01/16 03:25:02;;;;;;;29.70;17.42;;;-1.50;99.90;;;;;;5049158;28;20187;-85
2022/01/16 03:27:36;;;;;;;29.75;17.50;;;-1.40;99.90;;;;;;5047060;28;20505;-84
2022/01/16 03:30:03;;;;;;;27.20;16.55;;;-1.30;99.90;;;;;;5044384;28;20597;-85
2022/01/16 03:32:29;;;;;;;25.17;15.25;;;-1.20;99.90;;;;;;5044423;28;20109;-85
2022/01/16 03:34:56;;;;;;;24.35;14.90;;;-1.10;99.90;;;;;;5044606;28;20088;-85
2022/01/16 03:37:23;;;;;;;24.58;14.05;;;-1.10;99.90;;;;;;5043381;28;20045;-84
2022/01/16 03:39:50;;;;;;;22.08;14.02;;;-1.10;99.90;;;;;;5043647;28;20101;-84
2022/01/16 03:42:23;;;;;;;18.65;12.95;;;-1.00;99.90;;;;;;5044648;28;20049;-84
2022/01/16 03:44:50;;;;;;;19.88;13.77;;;-1.00;99.90;;;;;;5044979;28;20415;-84
2022/01/16 03:47:18;;;;;;;20.27;13.75;;;-1.00;99.90;;;;;;5037664;28;20123;-82
2022/01/16 03:49:49;;;;;;;22.60;14.23;;;-1.00;99.90;;;;;;5038038;28;20124;-82
2022/01/16 03:52:15;;;;;;;23.85;14.63;;;-1.00;99.90;;;;;;5041465;28;20125;-84
2022/01/16 03:54:42;;;;;;;22.13;13.70;;;-1.00;99.90;;;;;;5040864;28;20137;-84
2022/01/16 03:57:15;;;;;;;22.95;13.95;;;-1.10;99.90;;;;;;5040699;28;20558;-82
2022/01/16 03:59:42;;;;;;;21.70;13.52;;;-1.10;99.90;;;;;;5042326;28;20057;-84
2022/01/16 04:02:09;;;;;;;20.02;13.80;;;-1.10;99.90;;;;;;5041816;28;20463;-84
2022/01/16 04:04:36;;;;;;;21.75;13.80;;;-1.10;99.90;;;;;;5039458;28;20053;-82
2022/01/16 04:07:03;;;;;;;22.90;14.10;;;-1.20;99.90;;;;;;5040418;28;20109;-84
2022/01/16 04:09:46;;;;;;;21.63;13.30;;;-1.20;99.90;;;;;;5038936;28;20046;-82
2022/01/16 04:12:13;;;;;;;22.67;13.90;;;-1.20;99.90;;;;;;5041331;28;20092;-84
2022/01/16 04:17:16;;;;;;;20.38;13.07;;;-1.30;99.90;;;;;;5038382;28;20069;-82
2022/01/16 04:19:44;;;;;;;22.55;14.60;;;-1.40;99.90;;;;;;5037388;28;20092;-82
2022/01/16 04:22:12;;;;;;;25.17;15.45;;;-1.40;99.90;;;;;;5037113;28;20077;-82
2022/01/16 04:24:39;;;;;;;22.38;13.45;;;-1.30;99.90;;;;;;5037139;28;20132;-82
2022/01/16 04:27:06;;;;;;;25.70;13.85;;;-1.30;99.90;;;;;;5037637;28;20065;-82
2022/01/16 04:29:33;;;;;;;25.45;14.48;;;-1.20;99.90;;;;;;5038209;28;20132;-82
2022/01/16 04:32:00;;;;;;;24.95;15.10;;;-1.30;99.90;;;;;;5037263;28;20064;-84
2022/01/16 04:34:27;;;;;;;24.30;14.45;;;-1.20;99.90;;;;;;5037772;28;20136;-82
2022/01/16 04:36:53;;;;;;;21.63;14.40;;;-1.20;99.90;;;;;;5036622;28;20053;-82
2022/01/16 04:39:21;;;;;;;22.30;14.40;;;-1.20;99.90;;;;;;5039432;28;20080;-82
2022/01/16 04:44:33;;;;;;;21.70;13.80;;;-1.20;99.90;;;;;;5040189;28;20059;-82
2022/01/16 04:47:00;;;;;;;23.52;13.73;;;-1.10;99.90;;;;;;5038418;28;20077;-81
2022/01/16 04:49:27;;;;;;;21.42;13.85;;;-1.10;99.90;;;;;;5039608;28;20121;-84
2022/01/16 04:51:55;;;;;;;21.02;13.60;;;-1.10;99.90;;;;;;5037933;28;20049;-84
2022/01/16 04:54:22;;;;;;;19.13;13.00;;;-1.10;99.90;;;;;;5036722;28;20056;-82
2022/01/16 04:56:48;;;;;;;22.08;13.35;;;-1.10;99.90;;;;;;5036199;28;20096;-82
2022/01/16 04:59:16;;;;;;;21.83;13.65;;;-1.10;99.90;;;;;;5036541;28;20465;-82
2022/01/16 05:01:44;;;;;;;20.70;13.82;;;-1.10;99.90;;;;;;5037394;28;20122;-82
2022/01/16 05:04:11;;;;;;;23.25;14.18;;;-1.00;99.90;;;;;;5038182;28;20432;-84
2022/01/16 05:06:38;;;;;;;22.55;13.73;;;-1.00;99.90;;;;;;5038754;28;20049;-82
2022/01/16 05:09:04;;;;;;;19.38;12.82;;;-1.00;99.90;;;;;;5035434;28;20054;-82
2022/01/16 05:11:31;;;;;;;24.08;14.07;;;-1.00;99.90;;;;;;5036067;28;20077;-81
2022/01/16 05:16:37;;;;;;;21.90;13.55;;;-1.10;99.90;;;;;;5036789;28;20069;-82
2022/01/16 05:19:12;;;;;;;21.05;12.82;;;-1.10;99.90;;;;;;5035771;28;20113;-82
2022/01/16 05:21:42;;;;;;;23.35;13.02;;;-1.10;99.90;;;;;;5036160;28;20080;-84
2022/01/16 05:24:10;;;;;;;24.50;13.75;;;-1.20;99.90;;;;;;5037583;28;20194;-84
2022/01/16 05:26:43;;;;;;;22.25;13.15;;;-1.20;99.90;;;;;;5038219;28;20049;-82
2022/01/16 05:29:11;;;;;;;23.45;13.45;;;-1.20;99.90;;;;;;5038355;28;20133;-83
2022/01/16 05:31:44;;;;;;;23.27;13.63;;;-1.20;99.90;;;;;;5038975;28;20045;-84
2022/01/16 05:34:13;;;;;;;23.27;13.68;;;-1.10;99.90;;;;;;5037980;28;20411;-84
2022/01/16 05:36:40;;;;;;;22.10;13.15;;;-1.10;99.90;;;;;;5041991;28;20050;-82
2022/01/16 05:39:07;;;;;;;22.15;13.02;;;-1.10;99.90;;;;;;5056074;28;20045;-84
2022/01/16 05:41:33;;;;;;;23.88;13.93;;;-1.10;99.90;;;;;;5041962;28;20045;-84
2022/01/16 05:44:00;;;;;;;21.35;12.63;;;-1.10;99.90;;;;;;5038579;28;20593;-84
2022/01/16 05:46:27;;;;;;;21.05;12.52;;;-1.00;99.90;;;;;;5039611;28;20073;-84
2022/01/16 05:48:54;;;;;;;23.35;14.02;;;-1.00;99.90;;;;;;5037858;28;20046;-82
2022/01/16 05:51:21;;;;;;;20.52;12.15;;;-1.00;99.90;;;;;;5036716;28;20048;-83
2022/01/16 05:53:50;;;;;;;24.60;14.68;;;-0.90;99.90;;;;;;5038050;28;20061;-84
2022/01/16 05:56:17;;;;;;;21.55;12.77;;;-0.90;99.90;;;;;;5037416;28;20049;-84
2022/01/16 05:58:44;;;;;;;22.13;13.07;;;-1.00;99.90;;;;;;5039438;28;20482;-84
2022/01/16 06:01:10;;;;;;;23.23;13.00;;;-1.00;99.90;;;;;;5039068;28;20467;-82
2022/01/16 06:03:37;;;;;;;21.13;12.48;;;-1.00;99.90;;;;;;5039615;28;20083;-84
2022/01/16 06:06:04;;;;;;;21.23;11.90;;;-1.10;99.90;;;;;;5039515;28;20148;-84
2022/01/16 06:08:31;;;;;;;21.40;13.25;;;-1.10;99.90;;;;;;5038124;28;20502;-84
2022/01/16 06:10:58;;;;;;;20.67;11.88;;;-1.10;99.90;;;;;;5035918;28;20124;-84
2022/01/16 06:13:25;;;;;;;22.35;12.32;;;-1.10;99.90;;;;;;5037515;28;20049;-82
2022/01/16 06:15:52;;;;;;;20.60;12.45;;;-1.10;99.90;;;;;;5038957;28;20101;-84
2022/01/16 06:18:18;;;;;;;22.52;13.40;;;-1.10;99.90;;;;;;5034203;28;20499;-84
2022/01/16 06:20:47;;;;;;;30.15;18.52;;;-1.10;99.90;;;;;;5036328;28;20153;-84
2022/01/16 06:23:14;;;;;;;31.60;20.02;;;-1.10;99.90;;;;;;5037172;28;20057;-84
2022/01/16 06:25:41;;;;;;;23.67;13.10;;;-1.00;99.90;;;;;;5039459;28;20089;-85
2022/01/16 06:28:08;;;;;;;26.52;15.77;;;-1.00;99.90;;;;;;5038863;28;20457;-84
2022/01/16 06:30:35;;;;;;;25.38;16.77;;;-0.80;99.90;;;;;;5038203;28;20048;-84
2022/01/16 06:33:05;;;;;;;36.17;24.80;;;-0.80;99.90;;;;;;5035911;28;20058;-84
2022/01/16 06:35:32;;;;;;;30.58;21.45;;;-0.80;99.90;;;;;;5036993;28;20129;-81
2022/01/16 06:37:59;;;;;;;24.95;13.73;;;-0.90;99.90;;;;;;5035458;28;20050;-81
2022/01/16 06:40:26;;;;;;;24.65;13.75;;;-0.80;99.90;;;;;;5038784;28;20136;-81
2022/01/16 06:42:52;;;;;;;27.02;16.15;;;-0.80;99.90;;;;;;5040243;28;20057;-81
2022/01/16 06:45:21;;;;;;;24.70;13.98;;;-0.80;99.90;;;;;;5040473;28;20061;-81
2022/01/16 06:47:48;;;;;;;24.83;13.30;;;-0.80;99.90;;;;;;5041866;28;20124;-84
2022/01/16 06:50:15;;;;;;;24.23;13.52;;;-0.70;99.90;;;;;;5040067;28;20052;-84
2022/01/16 06:52:42;;;;;;;25.45;13.85;;;-0.70;99.90;;;;;;5039295;28;20558;-84
2022/01/16 06:55:09;;;;;;;23.13;14.32;;;-0.70;99.90;;;;;;5040169;28;20541;-84
2022/01/16 06:57:36;;;;;;;25.95;15.80;;;-0.60;99.90;;;;;;5039307;28;20474;-81
2022/01/16 07:00:06;;;;;;;22.25;13.48;;;-0.60;99.90;;;;;;5039018;28;20507;-81
2022/01/16 07:02:33;;;;;;;22.77;14.98;;;-0.60;99.90;;;;;;5040282;28;20495;-84
2022/01/16 07:05:02;;;;;;;24.42;13.80;;;-0.50;99.90;;;;;;5039510;28;20053;-84
2022/01/16 07:07:28;;;;;;;24.60;13.40;;;-0.40;99.90;;;;;;5038470;28;20140;-82
2022/01/16 07:10:04;;;;;;;24.85;13.45;;;-0.40;99.90;;;;;;5038482;28;20109;-82
2022/01/16 07:12:31;;;;;;;24.50;14.07;;;-0.40;99.90;;;;;;5038038;28;20509;-84
2022/01/16 07:14:58;;;;;;;23.92;13.57;;;-0.50;99.90;;;;;;5037620;28;20052;-84
2022/01/16 07:17:24;;;;;;;21.70;13.45;;;-0.50;99.90;;;;;;5037674;28;20136;-84
2022/01/16 07:19:51;;;;;;;22.80;12.85;;;-0.40;99.90;;;;;;5038166;28;20160;-84
2022/01/16 07:22:21;;;;;;;23.17;13.93;;;-0.40;99.90;;;;;;5038003;28;20045;-83
2022/01/16 07:24:51;;;;;;;21.88;13.20;;;-0.40;99.90;;;;;;5035903;28;20132;-84
2022/01/16 07:27:20;;;;;;;25.75;14.45;;;-0.40;99.90;;;;;;5041754;28;20042;-81
2022/01/16 07:29:47;;;;;;;21.70;13.38;;;-0.30;99.90;;;;;;5040073;28;20076;-84
2022/01/16 07:32:14;;;;;;;19.60;12.48;;;-0.30;99.90;;;;;;5038095;28;20041;-81
2022/01/16 07:34:41;;;;;;;19.60;12.02;;;-0.30;99.90;;;;;;5038846;28;20149;-82
2022/01/16 07:37:08;;;;;;;17.15;11.38;;;-0.30;99.90;;;;;;5038596;28;20076;-84
2022/01/16 07:39:37;;;;;;;18.45;12.27;;;-0.30;99.90;;;;;;5040411;28;20128;-81
2022/01/16 07:42:07;;;;;;;19.52;12.77;;;-0.30;99.90;;;;;;5041058;28;20080;-83
2022/01/16 07:44:33;;;;;;;20.08;12.55;;;-0.30;99.90;;;;;;5042675;28;20118;-81
2022/01/16 07:47:00;;;;;;;20.25;12.75;;;-0.30;99.90;;;;;;5040399;28;20121;-83
2022/01/16 07:49:27;;;;;;;18.92;12.02;;;-0.30;99.90;;;;;;5039234;28;20048;-83
2022/01/16 07:51:57;;;;;;;19.33;12.18;;;-0.30;99.90;;;;;;5038038;28;20069;-82
2022/01/16 07:54:23;;;;;;;22.52;13.27;;;-0.30;99.90;;;;;;5038144;28;20103;-82
2022/01/16 07:56:53;;;;;;;22.30;14.52;;;-0.30;99.90;;;;;;5039402;28;20136;-82
2022/01/16 07:59:20;;;;;;;17.42;11.60;;;-0.30;99.90;;;;;;5039882;28;20132;-84
2022/01/16 08:01:47;;;;;;;24.20;13.23;;;-0.20;99.90;;;;;;5039906;28;20140;-84
2022/01/16 08:04:14;;;;;;;22.17;14.13;;;-0.20;99.90;;;;;;5041886;28;20049;-81
2022/01/16 08:06:43;;;;;;;17.55;12.50;;;-0.10;99.90;;;;;;5040950;28;20462;-81
2022/01/16 08:09:12;;;;;;;21.33;13.05;;;-0.10;99.90;;;;;;5042009;28;20088;-81
2022/01/16 08:11:39;;;;;;;20.85;13.20;;;-0.10;99.90;;;;;;5045033;28;20104;-81
2022/01/16 08:14:06;;;;;;;22.23;12.98;;;0.00;99.90;;;;;;5050947;28;20053;-82
2022/01/16 08:16:39;;;;;;;21.33;14.15;;;0.00;99.90;;;;;;5038553;28;20109;-81
2022/01/16 08:19:06;;;;;;;19.90;14.32;;;0.00;99.90;;;;;;5039791;28;20049;-80
2022/01/16 08:21:33;;;;;;;21.67;13.85;;;0.10;99.90;;;;;;5036998;28;20132;-81
2022/01/16 08:24:03;;;;;;;23.50;14.18;;;0.10;99.90;;;;;;5037770;28;20091;-81
2022/01/16 08:26:31;;;;;;;23.85;14.93;;;0.20;99.90;;;;;;5040637;28;20208;-83
2022/01/16 08:28:58;;;;;;;25.70;15.50;;;0.20;99.90;;;;;;5039405;28;20124;-84
2022/01/16 08:31:26;;;;;;;25.80;16.13;;;0.20;99.90;;;;;;5038967;28;20542;-84
2022/01/16 08:33:53;;;;;;;23.25;15.38;;;0.30;99.90;;;;;;5037951;28;20060;-82
2022/01/16 08:36:21;;;;;;;21.60;14.95;;;0.30;99.90;;;;;;5039923;28;20073;-82
2022/01/16 08:38:48;;;;;;;24.08;15.10;;;0.30;99.90;;;;;;5038538;28;20156;-84
2022/01/16 08:41:15;;;;;;;25.60;16.20;;;0.40;99.90;;;;;;5038965;28;20141;-82
2022/01/16 08:43:43;;;;;;;23.20;15.20;;;0.40;99.90;;;;;;5038321;28;20050;-84
2022/01/16 08:46:09;;;;;;;24.65;16.17;;;0.50;99.90;;;;;;5039125;28;20050;-83
2022/01/16 08:48:36;;;;;;;26.20;15.77;;;0.60;99.90;;;;;;5041488;28;20045;-83
2022/01/16 08:51:05;;;;;;;26.38;17.40;;;0.60;99.90;;;;;;5043175;28;20080;-83
2022/01/16 08:53:32;;;;;;;31.73;19.15;;;0.70;99.90;;;;;;5045201;28;20061;-82
2022/01/16 08:56:00;;;;;;;28.20;18.02;;;0.70;99.90;;;;;;5040721;28;20113;-81
2022/01/16 08:58:27;;;;;;;28.50;18.38;;;0.70;99.90;;;;;;5038160;28;20083;-81
2022/01/16 09:00:54;;;;;;;31.23;19.13;;;0.80;99.90;;;;;;5037694;28;20046;-80
2022/01/16 09:03:22;;;;;;;28.70;19.52;;;0.80;99.90;;;;;;5035307;28;20053;-84
2022/01/16 09:05:50;;;;;;;29.58;18.92;;;0.70;99.90;;;;;;5036669;28;20107;-84
2022/01/16 09:08:18;;;;;;;31.25;19.55;;;0.60;99.90;;;;;;5037095;28;20069;-84
2022/01/16 09:10:45;;;;;;;30.02;18.25;;;0.60;99.90;;;;;;5035373;28;20080;-82
2022/01/16 09:13:16;;;;;;;22.80;16.05;;;0.50;99.90;;;;;;5037152;28;20049;-83
2022/01/16 09:15:47;;;;;;;23.33;15.52;;;0.50;99.90;;;;;;5034554;28;20403;-84
2022/01/16 09:18:16;;;;;;;23.80;16.10;;;0.50;99.90;;;;;;5034077;28;20080;-85
2022/01/16 09:20:43;;;;;;;23.35;14.35;;;0.50;99.90;;;;;;5033834;28;20072;-84
2022/01/16 09:23:11;;;;;;;21.90;14.43;;;0.50;99.90;;;;;;5034421;28;20132;-84
2022/01/16 09:25:39;;;;;;;20.27;13.55;;;0.60;99.90;;;;;;5034870;28;20056;-84
2022/01/16 09:28:06;;;;;;;19.15;13.07;;;0.60;99.90;;;;;;5033717;28;20050;-84
2022/01/16 09:30:34;;;;;;;17.42;11.35;;;0.60;99.90;;;;;;5033765;28;20136;-84
2022/01/16 09:33:01;;;;;;;17.40;11.95;;;0.60;99.90;;;;;;5033771;28;20080;-83
2022/01/16 09:35:33;;;;;;;19.88;12.98;;;0.70;99.90;;;;;;5034777;28;20137;-84
2022/01/16 09:38:01;;;;;;;16.50;11.15;;;0.70;99.90;;;;;;5034269;28;20091;-83
2022/01/16 09:40:28;;;;;;;17.30;11.20;;;0.80;99.90;;;;;;5035889;28;20049;-81
2022/01/16 09:42:56;;;;;;;17.55;10.70;;;0.80;99.90;;;;;;5038407;28;20083;-84
2022/01/16 09:45:23;;;;;;;15.80;10.98;;;0.90;99.90;;;;;;5038346;28;20053;-83
2022/01/16 09:47:50;;;;;;;15.02;10.63;;;0.90;99.90;;;;;;5038094;28;20049;-81
2022/01/16 09:50:21;;;;;;;13.80;9.80;;;1.00;99.90;;;;;;5036310;28;20111;-83
2022/01/16 09:52:48;;;;;;;15.45;9.93;;;1.10;99.90;;;;;;5036209;28;20042;-83
2022/01/16 09:55:17;;;;;;;15.65;10.23;;;1.10;99.90;;;;;;5035600;28;20065;-83
2022/01/16 09:57:44;;;;;;;16.20;10.38;;;1.20;99.90;;;;;;5036334;28;20054;-82
2022/01/16 10:00:16;;;;;;;14.38;10.00;;;1.20;99.90;;;;;;5035959;28;20053;-83
2022/01/16 10:02:45;;;;;;;14.00;9.23;;;1.20;99.90;;;;;;5035816;28;20057;-84
2022/01/16 10:05:38;;;;;;;12.27;8.90;;;1.20;99.90;;;;;;5036934;28;20061;-84
2022/01/16 10:08:11;;;;;;;12.68;8.65;;;1.20;99.90;;;;;;5035849;28;20487;-83
2022/01/16 10:10:41;;;;;;;14.25;8.90;;;1.20;99.90;;;;;;5036999;28;20046;-83
2022/01/16 10:13:21;;;;;;;11.32;8.07;;;1.30;99.90;;;;;;5037038;28;20045;-83
2022/01/16 10:15:56;;;;;;;11.52;7.70;;;1.40;99.90;;;;;;5038232;28;20053;-82
2022/01/16 10:18:37;;;;;;;11.52;8.38;;;1.50;99.90;;;;;;5039022;28;20113;-84
2022/01/16 10:21:05;;;;;;;10.20;7.20;;;1.50;99.90;;;;;;5038932;28;20132;-82
2022/01/16 10:23:40;;;;;;;12.23;7.55;;;1.40;99.90;;;;;;5039209;28;20088;-83
2022/01/16 10:26:18;;;;;;;11.45;7.53;;;1.40;99.90;;;;;;5038600;28;20139;-82
2022/01/16 10:28:44;;;;;;;8.57;6.63;;;1.30;99.90;;;;;;5039953;28;20045;-82
2022/01/16 10:31:19;;;;;;;11.27;7.97;;;1.30;99.90;;;;;;5039522;28;20128;-83
2022/01/16 10:33:46;;;;;;;11.55;6.85;;;1.40;99.90;;;;;;5037462;28;20125;-83
2022/01/16 10:36:12;;;;;;;10.48;7.13;;;1.40;99.90;;;;;;5037390;28;20076;-83
2022/01/16 10:38:39;;;;;;;11.93;7.15;;;1.40;99.90;;;;;;5039319;28;20085;-83
2022/01/16 10:41:13;;;;;;;9.68;6.35;;;1.50;99.90;;;;;;5040170;28;20140;-83
2022/01/16 10:43:42;;;;;;;9.75;6.80;;;1.60;99.90;;;;;;5037514;28;20080;-83
2022/01/16 10:46:11;;;;;;;11.15;7.03;;;1.70;99.90;;;;;;5038220;28;20058;-83
2022/01/16 10:49:14;;;;;;;10.15;6.85;;;1.70;99.90;;;;;;5038387;28;20046;-84
2022/01/16 10:51:41;;;;;;;10.18;6.78;;;1.80;99.90;;;;;;5039475;28;20049;-86
2022/01/16 10:54:31;;;;;;;10.23;6.90;;;1.80;99.90;;;;;;5039858;28;20050;-85
2022/01/16 10:57:17;;;;;;;11.75;7.13;;;1.80;99.90;;;;;;5041977;28;20087;-85
2022/01/16 10:59:45;;;;;;;11.88;7.70;;;1.80;99.90;;;;;;5038429;28;20440;-85
2022/01/16 11:02:12;;;;;;;12.13;8.18;;;1.70;99.90;;;;;;5036892;28;20087;-84
2022/01/16 11:04:40;;;;;;;11.35;7.43;;;1.70;99.90;;;;;;5038683;28;20050;-84
2022/01/16 11:07:07;;;;;;;10.73;7.50;;;1.70;99.90;;;;;;5038502;28;20095;-84
2022/01/16 11:09:34;;;;;;;16.27;8.23;;;1.60;99.90;;;;;;5037612;28;20128;-84
2022/01/16 11:12:01;;;;;;;12.43;8.10;;;1.60;99.90;;;;;;5038473;28;20388;-84
2022/01/16 11:14:29;;;;;;;13.93;8.70;;;1.70;99.90;;;;;;5038926;28;20083;-84
2022/01/16 11:16:57;;;;;;;13.18;8.43;;;1.70;99.90;;;;;;5037190;28;20137;-84
2022/01/16 11:19:26;;;;;;;12.80;8.63;;;1.70;99.90;;;;;;5038882;28;20049;-85
2022/01/16 11:21:56;;;;;;;14.25;8.43;;;1.80;99.90;;;;;;5040138;28;20046;-84
2022/01/16 11:24:33;;;;;;;11.55;7.95;;;2.00;99.90;;;;;;5038966;28;20080;-84
2022/01/16 11:27:01;;;;;;;12.95;8.02;;;2.00;99.90;;;;;;5038298;28;20447;-85
2022/01/16 11:29:29;;;;;;;15.55;8.35;;;2.10;99.90;;;;;;5038405;28;20045;-85
2022/01/16 11:31:57;;;;;;;10.93;8.20;;;2.20;99.90;;;;;;5040442;28;20073;-84
2022/01/16 11:34:24;;;;;;;11.25;8.05;;;2.10;99.90;;;;;;5037776;28;20089;-84
2022/01/16 11:36:53;;;;;;;13.93;8.20;;;2.20;99.90;;;;;;5037491;28;20063;-84
2022/01/16 11:39:22;;;;;;;14.25;8.90;;;2.00;99.90;;;;;;5038216;28;20056;-84
2022/01/16 11:41:56;;;;;;;13.05;8.43;;;1.90;99.90;;;;;;5039456;28;20069;-84
2022/01/16 11:44:31;;;;;;;13.27;8.90;;;2.00;99.90;;;;;;5037936;28;20046;-84
2022/01/16 11:47:04;;;;;;;13.18;8.68;;;1.90;99.90;;;;;;5037767;28;20415;-83
2022/01/16 11:49:41;;;;;;;11.05;8.13;;;1.90;99.90;;;;;;5039104;28;20049;-83
2022/01/16 11:52:13;;;;;;;15.80;8.32;;;2.00;99.90;;;;;;5038486;28;20076;-85
2022/01/16 11:54:43;;;;;;;12.37;7.90;;;2.20;99.90;;;;;;5038320;28;20045;-83
2022/01/16 11:57:27;;;;;;;13.05;8.68;;;2.40;99.90;;;;;;5037659;28;20285;-86
2022/01/16 11:59:59;;;;;;;;;;;2.50;99.90;;;;;;5037819;28;20068;-84
2022/01/16 12:02:26;;;;;;;9.65;6.97;;;2.50;99.90;;;;;;5035055;28;19931;-82
2022/01/16 12:04:56;;;;;;;10.35;6.82;;;2.40;99.90;;;;;;5035034;28;20128;-81
2022/01/16 12:07:34;;;;;;;9.38;7.07;;;2.40;99.90;;;;;;5036644;28;20480;-83
2022/01/16 12:10:03;;;;;;;9.65;6.60;;;2.30;99.90;;;;;;5039683;28;20506;-84
2022/01/16 12:12:31;;;;;;;8.85;6.25;;;2.40;99.90;;;;;;5039937;28;20053;-84
2022/01/16 12:15:00;;;;;;;8.48;6.32;;;2.50;99.90;;;;;;5038671;28;20087;-84
2022/01/16 12:17:31;;;;;;;8.93;5.78;;;2.50;99.90;;;;;;5037915;28;20132;-84
2022/01/16 12:20:20;;;;;;;7.13;5.93;;;2.60;99.90;;;;;;5038174;28;20076;-83
2022/01/16 12:22:53;;;;;;;6.35;4.93;;;2.60;99.90;;;;;;5038347;28;20059;-84
2022/01/16 12:25:52;;;;;;;8.23;6.30;;;2.60;99.90;;;;;;5037413;28;20046;-82
2022/01/16 12:28:23;;;;;;;6.60;5.53;;;2.60;99.90;;;;;;5038354;28;20045;-82
2022/01/16 12:30:55;;;;;;;7.10;5.32;;;2.70;99.90;;;;;;5037515;28;20049;-83
2022/01/16 12:33:35;;;;;;;9.63;6.10;;;2.70;99.90;;;;;;5036776;28;20446;-84
2022/01/16 12:36:10;;;;;;;7.63;5.22;;;2.80;99.90;;;;;;5036019;28;20103;-84
2022/01/16 12:38:39;;;;;;;6.40;4.95;;;2.90;99.90;;;;;;5034442;28;20144;-84
2022/01/16 12:41:27;;;;;;;6.40;4.93;;;2.90;99.90;;;;;;5034356;28;20144;-83
2022/01/16 12:44:04;;;;;;;7.00;5.13;;;2.90;99.90;;;;;;5034997;28;20057;-84
2022/01/16 12:46:34;;;;;;;6.90;5.10;;;2.80;99.90;;;;;;5035764;28;20144;-84
2022/01/16 12:49:11;;;;;;;6.30;5.10;;;2.70;99.90;;;;;;5034414;28;20144;-84
2022/01/16 12:51:40;;;;;;;6.10;4.43;;;2.60;99.90;;;;;;5034813;28;20099;-85
2022/01/16 12:54:19;;;;;;;5.72;4.75;;;2.60;99.90;;;;;;5034500;28;20132;-84
2022/01/16 12:56:52;;;;;;;5.10;4.13;;;2.70;99.90;;;;;;5035606;28;20069;-84
2022/01/16 12:59:41;;;;;;;4.38;3.97;;;2.70;99.90;;;;;;5036846;28;20049;-82
2022/01/16 13:02:08;;;;;;;4.95;3.97;;;2.70;99.90;;;;;;5037399;28;20145;-82
2022/01/16 13:04:45;;;;;;;5.13;4.38;;;2.60;99.90;;;;;;5037322;28;20136;-84
2022/01/16 13:07:33;;;;;;;8.10;4.80;;;2.70;99.90;;;;;;5040550;28;20053;-84
2022/01/16 13:10:00;;;;;;;6.60;4.38;;;2.60;99.90;;;;;;5041735;28;20052;-85
2022/01/16 13:12:29;;;;;;;6.55;4.40;;;2.70;99.90;;;;;;5037033;28;20136;-81
2022/01/16 13:15:00;;;;;;;6.90;4.57;;;2.70;99.90;;;;;;5036522;28;20046;-81
2022/01/16 13:17:33;;;;;;;5.30;4.25;;;2.60;99.90;;;;;;5036096;28;20136;-82
2022/01/16 13:20:02;;;;;;;4.95;4.15;;;2.70;99.90;;;;;;5035724;28;20051;-83
2022/01/16 13:22:32;;;;;;;4.97;4.13;;;2.70;99.90;;;;;;5037224;28;20060;-82
2022/01/16 13:25:07;;;;;;;7.72;5.15;;;2.80;99.90;;;;;;5036606;28;20068;-82
2022/01/16 13:27:39;;;;;;;7.63;4.68;;;2.80;99.90;;;;;;5036254;28;20046;-83
2022/01/16 13:30:11;;;;;;;5.68;4.53;;;2.80;99.90;;;;;;5036380;28;20049;-83